sensor_id;sensor_type;location;lat;lon;timestamp;P1;durP1;ratioP1;P2;durP2;ratioP2
62353;SDS011;48391;49.184;2.418;2022-12-07T08:39:26;23.30;;;13.27;;
62353;SDS011;48391;49.184;2.418;2022-12-07T08:41:52;22.95;;;12.60;;
62353;SDS011;48391;49.184;2.418;2022-12-07T08:44:18;16.23;;;10.27;;
62353;SDS011;48391;49.184;2.418;2022-12-07T08:46:46;13.23;;;8.23;;
62353;SDS011;48391;49.184;2.418;2022-12-07T08:49:18;13.88;;;8.85;;
62353;SDS011;48391;49.184;2.418;2022-12-07T08:52:01;15.35;;;9.43;;
62353;SDS011;48391;49.184;2.418;2022-12-07T08:54:29;15.75;;;10.02;;
62353;SDS011;48391;49.184;2.418;2022-12-07T08:56:58;14.77;;;9.13;;
62353;SDS011;48391;49.184;2.418;2022-12-07T08:59:24;13.60;;;8.82;;
62353;SDS011;48391;49.184;2.418;2022-12-07T09:01:51;14.95;;;9.40;;
62353;SDS011;48391;49.184;2.418;2022-12-07T09:04:17;14.27;;;8.98;;
62353;SDS011;48391;49.184;2.418;2022-12-07T09:06:43;13.27;;;8.32;;
62353;SDS011;48391;49.184;2.418;2022-12-07T09:16:24;13.27;;;9.40;;
62353;SDS011;48391;49.184;2.418;2022-12-07T09:18:50;14.73;;;9.57;;
62353;SDS011;48391;49.184;2.418;2022-12-07T09:21:16;11.80;;;9.18;;
62353;SDS011;48391;49.184;2.418;2022-12-07T09:23:42;11.27;;;6.70;;
62353;SDS011;48391;49.184;2.418;2022-12-07T09:26:09;11.73;;;7.88;;
62353;SDS011;48391;49.184;2.418;2022-12-07T09:28:35;11.57;;;7.70;;
62353;SDS011;48391;49.184;2.418;2022-12-07T09:31:02;10.73;;;7.43;;
62353;SDS011;48391;49.184;2.418;2022-12-07T09:33:29;11.27;;;6.88;;
62353;SDS011;48391;49.184;2.418;2022-12-07T09:35:55;10.32;;;7.38;;
62353;SDS011;48391;49.184;2.418;2022-12-07T09:40:51;10.75;;;7.00;;
62353;SDS011;48391;49.184;2.418;2022-12-07T09:43:20;10.30;;;7.90;;
62353;SDS011;48391;49.184;2.418;2022-12-07T09:45:53;10.02;;;8.25;;
62353;SDS011;48391;49.184;2.418;2022-12-07T09:48:25;14.77;;;9.52;;
62353;SDS011;48391;49.184;2.418;2022-12-07T09:50:57;13.90;;;9.30;;
62353;SDS011;48391;49.184;2.418;2022-12-07T09:53:26;12.95;;;9.10;;
62353;SDS011;48391;49.184;2.418;2022-12-07T09:55:58;13.23;;;9.38;;
62353;SDS011;48391;49.184;2.418;2022-12-07T09:58:26;12.15;;;7.90;;
62353;SDS011;48391;49.184;2.418;2022-12-07T10:01:16;15.43;;;10.02;;
62353;SDS011;48391;49.184;2.418;2022-12-07T10:03:49;12.82;;;9.40;;
62353;SDS011;48391;49.184;2.418;2022-12-07T10:06:17;19.10;;;10.88;;
62353;SDS011;48391;49.184;2.418;2022-12-07T10:08:43;16.10;;;9.43;;
62353;SDS011;48391;49.184;2.418;2022-12-07T10:11:10;14.90;;;8.95;;
62353;SDS011;48391;49.184;2.418;2022-12-07T10:16:05;12.20;;;8.55;;
62353;SDS011;48391;49.184;2.418;2022-12-07T10:18:53;9.95;;;7.50;;
62353;SDS011;48391;49.184;2.418;2022-12-07T10:21:21;12.10;;;7.72;;
62353;SDS011;48391;49.184;2.418;2022-12-07T10:24:04;13.90;;;8.48;;
62353;SDS011;48391;49.184;2.418;2022-12-07T10:29:37;8.45;;;7.25;;
62353;SDS011;48391;49.184;2.418;2022-12-07T10:34:36;16.40;;;10.10;;
62353;SDS011;48391;49.184;2.418;2022-12-07T10:37:23;10.43;;;7.80;;
62353;SDS011;48391;49.184;2.418;2022-12-07T10:39:53;10.57;;;7.80;;
62353;SDS011;48391;49.184;2.418;2022-12-07T10:42:25;10.75;;;7.68;;
62353;SDS011;48391;49.184;2.418;2022-12-07T10:50:43;14.07;;;9.70;;
62353;SDS011;48391;49.184;2.418;2022-12-07T10:53:24;11.50;;;9.23;;
62353;SDS011;48391;49.184;2.418;2022-12-07T11:02:24;14.90;;;10.45;;
62353;SDS011;48391;49.184;2.418;2022-12-07T11:10:16;10.23;;;7.40;;
62353;SDS011;48391;49.184;2.418;2022-12-07T11:22:20;9.90;;;7.18;;
62353;SDS011;48391;49.184;2.418;2022-12-07T11:30:42;6.20;;;5.55;;
62353;SDS011;48391;49.184;2.418;2022-12-07T11:36:49;7.30;;;5.32;;
62353;SDS011;48391;49.184;2.418;2022-12-07T11:39:42;9.55;;;6.07;;
62353;SDS011;48391;49.184;2.418;2022-12-07T11:43:32;9.03;;;6.73;;
62353;SDS011;48391;49.184;2.418;2022-12-07T11:45:59;12.23;;;8.25;;
62353;SDS011;48391;49.184;2.418;2022-12-07T11:48:43;10.05;;;6.97;;
62353;SDS011;48391;49.184;2.418;2022-12-07T11:51:51;11.38;;;7.40;;
62353;SDS011;48391;49.184;2.418;2022-12-07T11:58:03;8.68;;;6.32;;
62353;SDS011;48391;49.184;2.418;2022-12-07T12:00:46;8.02;;;6.22;;
62353;SDS011;48391;49.184;2.418;2022-12-07T12:03:30;10.73;;;8.20;;
62353;SDS011;48391;49.184;2.418;2022-12-07T12:06:29;15.05;;;8.45;;
62353;SDS011;48391;49.184;2.418;2022-12-07T12:14:46;13.73;;;8.88;;
62353;SDS011;48391;49.184;2.418;2022-12-07T12:19:41;11.43;;;8.52;;
62353;SDS011;48391;49.184;2.418;2022-12-07T12:25:34;8.38;;;6.95;;
62353;SDS011;48391;49.184;2.418;2022-12-07T12:28:04;6.93;;;5.60;;
62353;SDS011;48391;49.184;2.418;2022-12-07T12:30:37;8.48;;;5.60;;
62353;SDS011;48391;49.184;2.418;2022-12-07T12:33:20;7.03;;;6.18;;
62353;SDS011;48391;49.184;2.418;2022-12-07T12:47:04;6.32;;;4.72;;
62353;SDS011;48391;49.184;2.418;2022-12-07T12:50:15;4.70;;;4.07;;
62353;SDS011;48391;49.184;2.418;2022-12-07T12:53:12;4.68;;;4.18;;
62353;SDS011;48391;49.184;2.418;2022-12-07T13:00:45;5.72;;;3.88;;
62353;SDS011;48391;49.184;2.418;2022-12-07T13:03:22;6.45;;;4.88;;
62353;SDS011;48391;49.184;2.418;2022-12-07T13:08:51;5.72;;;4.30;;
62353;SDS011;48391;49.184;2.418;2022-12-07T13:17:01;9.38;;;5.68;;
62353;SDS011;48391;49.184;2.418;2022-12-07T13:25:36;8.82;;;4.68;;
62353;SDS011;48391;49.184;2.418;2022-12-07T13:28:10;6.30;;;4.82;;
62353;SDS011;48391;49.184;2.418;2022-12-07T13:30:44;9.10;;;6.13;;
62353;SDS011;48391;49.184;2.418;2022-12-07T13:33:27;6.70;;;5.25;;
62353;SDS011;48391;49.184;2.418;2022-12-07T13:35:54;9.38;;;6.45;;
62353;SDS011;48391;49.184;2.418;2022-12-07T13:41:02;11.27;;;7.35;;
62353;SDS011;48391;49.184;2.418;2022-12-07T13:43:48;8.93;;;7.57;;
62353;SDS011;48391;49.184;2.418;2022-12-07T13:46:35;10.13;;;5.78;;
62353;SDS011;48391;49.184;2.418;2022-12-07T13:49:46;7.35;;;5.60;;
62353;SDS011;48391;49.184;2.418;2022-12-07T13:52:18;9.53;;;7.53;;
62353;SDS011;48391;49.184;2.418;2022-12-07T13:57:30;7.95;;;5.13;;
62353;SDS011;48391;49.184;2.418;2022-12-07T13:59:59;8.30;;;4.75;;
62353;SDS011;48391;49.184;2.418;2022-12-07T14:02:29;7.75;;;6.00;;
62353;SDS011;48391;49.184;2.418;2022-12-07T14:05:12;8.27;;;6.07;;
62353;SDS011;48391;49.184;2.418;2022-12-07T14:15:55;13.05;;;7.85;;
62353;SDS011;48391;49.184;2.418;2022-12-07T14:18:30;8.48;;;6.78;;
62353;SDS011;48391;49.184;2.418;2022-12-07T14:24:08;10.50;;;6.10;;
62353;SDS011;48391;49.184;2.418;2022-12-07T14:26:37;7.25;;;5.38;;
62353;SDS011;48391;49.184;2.418;2022-12-07T14:29:21;5.57;;;4.35;;
62353;SDS011;48391;49.184;2.418;2022-12-07T14:32:01;4.53;;;3.67;;
62353;SDS011;48391;49.184;2.418;2022-12-07T14:34:40;4.82;;;3.03;;
62353;SDS011;48391;49.184;2.418;2022-12-07T14:37:08;6.97;;;5.03;;
62353;SDS011;48391;49.184;2.418;2022-12-07T14:39:35;5.63;;;4.72;;
62353;SDS011;48391;49.184;2.418;2022-12-07T14:42:01;6.13;;;4.13;;
62353;SDS011;48391;49.184;2.418;2022-12-07T14:44:28;8.35;;;4.00;;
62353;SDS011;48391;49.184;2.418;2022-12-07T14:46:54;4.80;;;3.58;;
62353;SDS011;48391;49.184;2.418;2022-12-07T14:49:20;5.47;;;3.72;;
62353;SDS011;48391;49.184;2.418;2022-12-07T14:51:46;3.80;;;3.20;;
62353;SDS011;48391;49.184;2.418;2022-12-07T14:54:16;8.25;;;5.50;;
62353;SDS011;48391;49.184;2.418;2022-12-07T14:56:45;6.15;;;4.43;;
62353;SDS011;48391;49.184;2.418;2022-12-07T15:01:42;9.48;;;5.10;;
62353;SDS011;48391;49.184;2.418;2022-12-07T15:04:08;6.78;;;4.10;;
62353;SDS011;48391;49.184;2.418;2022-12-07T15:06:36;3.53;;;3.13;;
62353;SDS011;48391;49.184;2.418;2022-12-07T15:09:02;7.43;;;3.50;;
62353;SDS011;48391;49.184;2.418;2022-12-07T15:11:28;8.13;;;4.28;;
62353;SDS011;48391;49.184;2.418;2022-12-07T15:13:55;9.05;;;4.65;;
62353;SDS011;48391;49.184;2.418;2022-12-07T15:16:33;8.70;;;5.40;;
62353;SDS011;48391;49.184;2.418;2022-12-07T15:19:00;7.15;;;4.85;;
62353;SDS011;48391;49.184;2.418;2022-12-07T15:21:27;6.72;;;5.03;;
62353;SDS011;48391;49.184;2.418;2022-12-07T15:23:53;7.55;;;6.05;;
62353;SDS011;48391;49.184;2.418;2022-12-07T15:26:19;6.70;;;4.82;;
62353;SDS011;48391;49.184;2.418;2022-12-07T15:28:45;5.93;;;4.45;;
62353;SDS011;48391;49.184;2.418;2022-12-07T15:31:12;10.63;;;6.70;;
62353;SDS011;48391;49.184;2.418;2022-12-07T15:33:39;10.63;;;4.65;;
62353;SDS011;48391;49.184;2.418;2022-12-07T15:36:06;5.90;;;4.40;;
62353;SDS011;48391;49.184;2.418;2022-12-07T15:38:33;6.43;;;4.43;;
62353;SDS011;48391;49.184;2.418;2022-12-07T15:41:00;5.35;;;3.83;;
62353;SDS011;48391;49.184;2.418;2022-12-07T15:43:26;4.53;;;3.72;;
62353;SDS011;48391;49.184;2.418;2022-12-07T15:46:10;5.90;;;4.55;;
62353;SDS011;48391;49.184;2.418;2022-12-07T15:48:37;8.85;;;4.28;;
62353;SDS011;48391;49.184;2.418;2022-12-07T15:51:03;5.60;;;4.40;;
62353;SDS011;48391;49.184;2.418;2022-12-07T15:53:33;5.82;;;4.30;;
62353;SDS011;48391;49.184;2.418;2022-12-07T15:56:00;4.88;;;4.30;;
62353;SDS011;48391;49.184;2.418;2022-12-07T15:58:30;7.43;;;5.15;;
62353;SDS011;48391;49.184;2.418;2022-12-07T16:00:57;6.55;;;4.07;;
62353;SDS011;48391;49.184;2.418;2022-12-07T16:03:23;6.78;;;4.45;;
62353;SDS011;48391;49.184;2.418;2022-12-07T16:05:50;3.35;;;2.90;;
62353;SDS011;48391;49.184;2.418;2022-12-07T16:08:17;3.35;;;2.65;;
62353;SDS011;48391;49.184;2.418;2022-12-07T16:10:43;4.07;;;2.33;;
62353;SDS011;48391;49.184;2.418;2022-12-07T16:13:10;5.78;;;3.47;;
62353;SDS011;48391;49.184;2.418;2022-12-07T16:15:39;4.07;;;2.85;;
62353;SDS011;48391;49.184;2.418;2022-12-07T16:18:06;6.20;;;3.92;;
62353;SDS011;48391;49.184;2.418;2022-12-07T16:20:33;3.42;;;3.08;;
62353;SDS011;48391;49.184;2.418;2022-12-07T16:22:59;3.40;;;2.67;;
62353;SDS011;48391;49.184;2.418;2022-12-07T16:25:25;4.93;;;3.63;;
62353;SDS011;48391;49.184;2.418;2022-12-07T16:27:52;4.18;;;3.78;;
62353;SDS011;48391;49.184;2.418;2022-12-07T16:30:18;5.00;;;4.15;;
62353;SDS011;48391;49.184;2.418;2022-12-07T16:32:44;6.82;;;4.82;;
62353;SDS011;48391;49.184;2.418;2022-12-07T16:35:11;5.30;;;4.15;;
62353;SDS011;48391;49.184;2.418;2022-12-07T16:37:38;4.40;;;4.00;;
62353;SDS011;48391;49.184;2.418;2022-12-07T16:40:06;3.65;;;3.33;;
62353;SDS011;48391;49.184;2.418;2022-12-07T16:42:33;6.07;;;3.63;;
62353;SDS011;48391;49.184;2.418;2022-12-07T16:45:01;3.58;;;2.80;;
62353;SDS011;48391;49.184;2.418;2022-12-07T16:47:27;5.85;;;3.50;;
62353;SDS011;48391;49.184;2.418;2022-12-07T16:49:54;3.42;;;2.90;;
62353;SDS011;48391;49.184;2.418;2022-12-07T16:52:20;2.90;;;2.40;;
62353;SDS011;48391;49.184;2.418;2022-12-07T16:54:46;3.55;;;2.40;;
62353;SDS011;48391;49.184;2.418;2022-12-07T16:57:14;1.75;;;1.65;;
62353;SDS011;48391;49.184;2.418;2022-12-07T16:59:40;2.60;;;2.33;;
62353;SDS011;48391;49.184;2.418;2022-12-07T17:02:08;3.45;;;2.70;;
62353;SDS011;48391;49.184;2.418;2022-12-07T17:04:36;3.15;;;2.58;;
62353;SDS011;48391;49.184;2.418;2022-12-07T17:07:04;2.50;;;2.30;;
62353;SDS011;48391;49.184;2.418;2022-12-07T17:09:31;3.88;;;2.53;;
62353;SDS011;48391;49.184;2.418;2022-12-07T17:11:57;4.13;;;2.63;;
62353;SDS011;48391;49.184;2.418;2022-12-07T17:14:23;2.63;;;2.25;;
62353;SDS011;48391;49.184;2.418;2022-12-07T17:17:08;4.38;;;3.03;;
62353;SDS011;48391;49.184;2.418;2022-12-07T17:19:34;4.22;;;3.08;;
62353;SDS011;48391;49.184;2.418;2022-12-07T17:22:00;2.88;;;2.65;;
62353;SDS011;48391;49.184;2.418;2022-12-07T17:24:26;4.25;;;2.97;;
62353;SDS011;48391;49.184;2.418;2022-12-07T17:26:52;2.92;;;2.20;;
62353;SDS011;48391;49.184;2.418;2022-12-07T17:29:18;3.28;;;2.47;;
62353;SDS011;48391;49.184;2.418;2022-12-07T17:31:46;3.97;;;2.90;;
62353;SDS011;48391;49.184;2.418;2022-12-07T17:34:13;3.10;;;2.80;;
62353;SDS011;48391;49.184;2.418;2022-12-07T17:36:40;3.40;;;3.10;;
62353;SDS011;48391;49.184;2.418;2022-12-07T17:39:10;4.60;;;2.92;;
62353;SDS011;48391;49.184;2.418;2022-12-07T17:41:39;3.42;;;3.00;;
62353;SDS011;48391;49.184;2.418;2022-12-07T17:44:24;4.13;;;3.30;;
62353;SDS011;48391;49.184;2.418;2022-12-07T17:46:52;3.55;;;2.78;;
62353;SDS011;48391;49.184;2.418;2022-12-07T17:49:23;5.20;;;3.72;;
62353;SDS011;48391;49.184;2.418;2022-12-07T17:51:50;5.22;;;3.88;;
62353;SDS011;48391;49.184;2.418;2022-12-07T17:54:34;9.95;;;5.65;;
62353;SDS011;48391;49.184;2.418;2022-12-07T17:57:01;4.80;;;3.88;;
62353;SDS011;48391;49.184;2.418;2022-12-07T17:59:27;6.10;;;5.50;;
62353;SDS011;48391;49.184;2.418;2022-12-07T18:01:53;7.18;;;5.43;;
62353;SDS011;48391;49.184;2.418;2022-12-07T18:04:19;8.77;;;6.30;;
62353;SDS011;48391;49.184;2.418;2022-12-07T18:06:46;11.60;;;7.75;;
62353;SDS011;48391;49.184;2.418;2022-12-07T18:09:12;14.15;;;8.13;;
62353;SDS011;48391;49.184;2.418;2022-12-07T18:11:38;13.40;;;8.18;;
62353;SDS011;48391;49.184;2.418;2022-12-07T18:14:05;12.40;;;7.30;;
62353;SDS011;48391;49.184;2.418;2022-12-07T18:16:32;9.75;;;6.30;;
62353;SDS011;48391;49.184;2.418;2022-12-07T18:19:03;10.38;;;5.90;;
62353;SDS011;48391;49.184;2.418;2022-12-07T18:21:31;7.25;;;5.05;;
62353;SDS011;48391;49.184;2.418;2022-12-07T18:23:59;5.75;;;3.83;;
62353;SDS011;48391;49.184;2.418;2022-12-07T18:26:27;5.60;;;4.20;;
62353;SDS011;48391;49.184;2.418;2022-12-07T18:28:57;9.70;;;5.43;;
62353;SDS011;48391;49.184;2.418;2022-12-07T18:31:24;7.75;;;5.40;;
62353;SDS011;48391;49.184;2.418;2022-12-07T18:33:50;8.18;;;5.85;;
62353;SDS011;48391;49.184;2.418;2022-12-07T18:36:20;8.13;;;5.95;;
62353;SDS011;48391;49.184;2.418;2022-12-07T18:38:46;11.02;;;5.82;;
62353;SDS011;48391;49.184;2.418;2022-12-07T18:41:14;8.45;;;5.30;;
62353;SDS011;48391;49.184;2.418;2022-12-07T18:43:41;9.00;;;6.07;;
62353;SDS011;48391;49.184;2.418;2022-12-07T18:46:14;8.95;;;6.10;;
62353;SDS011;48391;49.184;2.418;2022-12-07T18:48:42;8.60;;;5.40;;
62353;SDS011;48391;49.184;2.418;2022-12-07T18:51:10;7.22;;;5.85;;
62353;SDS011;48391;49.184;2.418;2022-12-07T18:53:40;5.15;;;4.40;;
62353;SDS011;48391;49.184;2.418;2022-12-07T18:56:17;5.10;;;3.45;;
62353;SDS011;48391;49.184;2.418;2022-12-07T18:58:50;5.88;;;4.38;;
62353;SDS011;48391;49.184;2.418;2022-12-07T19:04:02;4.57;;;3.45;;
62353;SDS011;48391;49.184;2.418;2022-12-07T19:06:29;5.90;;;3.78;;
62353;SDS011;48391;49.184;2.418;2022-12-07T19:08:55;6.70;;;4.93;;
62353;SDS011;48391;49.184;2.418;2022-12-07T19:11:23;5.60;;;4.07;;
62353;SDS011;48391;49.184;2.418;2022-12-07T19:14:09;5.65;;;4.50;;
62353;SDS011;48391;49.184;2.418;2022-12-07T19:16:36;5.82;;;4.13;;
62353;SDS011;48391;49.184;2.418;2022-12-07T19:19:02;5.82;;;4.18;;
62353;SDS011;48391;49.184;2.418;2022-12-07T19:21:29;6.20;;;4.75;;
62353;SDS011;48391;49.184;2.418;2022-12-07T19:23:55;9.70;;;4.97;;
62353;SDS011;48391;49.184;2.418;2022-12-07T19:26:22;12.23;;;6.65;;
62353;SDS011;48391;49.184;2.418;2022-12-07T19:28:48;9.93;;;5.80;;
62353;SDS011;48391;49.184;2.418;2022-12-07T19:31:15;12.25;;;6.95;;
62353;SDS011;48391;49.184;2.418;2022-12-07T19:33:41;11.90;;;6.63;;
62353;SDS011;48391;49.184;2.418;2022-12-07T19:36:07;10.45;;;7.45;;
62353;SDS011;48391;49.184;2.418;2022-12-07T19:38:33;11.57;;;7.40;;
62353;SDS011;48391;49.184;2.418;2022-12-07T19:41:18;13.50;;;7.18;;
62353;SDS011;48391;49.184;2.418;2022-12-07T19:44:00;10.48;;;6.63;;
62353;SDS011;48391;49.184;2.418;2022-12-07T19:46:29;9.45;;;5.95;;
62353;SDS011;48391;49.184;2.418;2022-12-07T19:48:56;7.28;;;5.53;;
62353;SDS011;48391;49.184;2.418;2022-12-07T19:51:22;7.10;;;4.93;;
62353;SDS011;48391;49.184;2.418;2022-12-07T19:53:49;4.85;;;3.90;;
62353;SDS011;48391;49.184;2.418;2022-12-07T19:56:16;5.53;;;3.95;;
62353;SDS011;48391;49.184;2.418;2022-12-07T19:58:44;8.15;;;4.35;;
62353;SDS011;48391;49.184;2.418;2022-12-07T20:01:11;11.82;;;5.03;;
62353;SDS011;48391;49.184;2.418;2022-12-07T20:03:38;7.47;;;5.90;;
62353;SDS011;48391;49.184;2.418;2022-12-07T20:06:20;15.43;;;9.60;;
62353;SDS011;48391;49.184;2.418;2022-12-07T20:11:17;16.52;;;9.00;;
62353;SDS011;48391;49.184;2.418;2022-12-07T20:14:06;12.13;;;8.23;;
62353;SDS011;48391;49.184;2.418;2022-12-07T20:16:34;9.95;;;7.07;;
62353;SDS011;48391;49.184;2.418;2022-12-07T20:19:00;10.68;;;7.75;;
62353;SDS011;48391;49.184;2.418;2022-12-07T20:21:27;8.52;;;7.35;;
62353;SDS011;48391;49.184;2.418;2022-12-07T20:23:53;10.35;;;7.50;;
62353;SDS011;48391;49.184;2.418;2022-12-07T20:26:19;10.77;;;8.07;;
62353;SDS011;48391;49.184;2.418;2022-12-07T20:28:46;12.65;;;8.73;;
62353;SDS011;48391;49.184;2.418;2022-12-07T20:31:13;12.88;;;8.18;;
62353;SDS011;48391;49.184;2.418;2022-12-07T20:33:40;11.95;;;8.35;;
62353;SDS011;48391;49.184;2.418;2022-12-07T20:36:10;12.10;;;8.27;;
62353;SDS011;48391;49.184;2.418;2022-12-07T20:38:37;8.52;;;7.20;;
62353;SDS011;48391;49.184;2.418;2022-12-07T20:41:04;11.13;;;7.63;;
62353;SDS011;48391;49.184;2.418;2022-12-07T20:43:32;9.95;;;7.25;;
62353;SDS011;48391;49.184;2.418;2022-12-07T20:45:59;8.95;;;6.57;;
62353;SDS011;48391;49.184;2.418;2022-12-07T20:48:25;9.38;;;6.72;;
62353;SDS011;48391;49.184;2.418;2022-12-07T20:50:51;9.68;;;8.20;;
62353;SDS011;48391;49.184;2.418;2022-12-07T20:53:18;10.45;;;6.85;;
62353;SDS011;48391;49.184;2.418;2022-12-07T20:55:45;11.63;;;8.90;;
62353;SDS011;48391;49.184;2.418;2022-12-07T20:58:11;16.42;;;10.55;;
62353;SDS011;48391;49.184;2.418;2022-12-07T21:00:37;13.38;;;9.07;;
62353;SDS011;48391;49.184;2.418;2022-12-07T21:03:03;17.42;;;10.98;;
62353;SDS011;48391;49.184;2.418;2022-12-07T21:05:29;17.13;;;11.55;;
62353;SDS011;48391;49.184;2.418;2022-12-07T21:07:57;22.08;;;13.85;;
62353;SDS011;48391;49.184;2.418;2022-12-07T21:10:23;20.23;;;11.90;;
62353;SDS011;48391;49.184;2.418;2022-12-07T21:12:49;21.20;;;13.20;;
62353;SDS011;48391;49.184;2.418;2022-12-07T21:15:15;16.50;;;11.57;;
62353;SDS011;48391;49.184;2.418;2022-12-07T21:17:41;19.13;;;13.25;;
62353;SDS011;48391;49.184;2.418;2022-12-07T21:20:10;16.70;;;10.63;;
62353;SDS011;48391;49.184;2.418;2022-12-07T21:22:36;17.77;;;11.48;;
62353;SDS011;48391;49.184;2.418;2022-12-07T21:25:03;18.55;;;10.85;;
62353;SDS011;48391;49.184;2.418;2022-12-07T21:27:29;15.38;;;9.75;;
62353;SDS011;48391;49.184;2.418;2022-12-07T21:29:55;20.10;;;10.63;;
62353;SDS011;48391;49.184;2.418;2022-12-07T21:32:21;15.73;;;10.48;;
